KBWD/BWD METAR and TAF weather

Enter ICAO airport designator
Station Type Date Time Source
KBWD METAR 2022/11/26 19:35 UTC NOAA

KBWD 261935Z AUTO 28014G17KT 10SM OVC024 08/04 A2982 RMK AO1


Station Type Date Time Source
KBWD Decoded METAR 2022/11/26 19:35 UTC NOAA

Brownwood, Brownwood Regional Airport, TX, United States (KBWD) 31-48N 098-57W
Nov 26, 2022 - 02:35 PM EST / 2022.11.26 1935 UTC
Wind: from the W (280 degrees) at 16 MPH (14 KT) gusting to 20 MPH (17 KT):0
Visibility: 10 mile(s):0
Sky conditions: overcast
Temperature: 46 F (8 C)
Dew Point: 39 F (4 C)
Relative Humidity: 75%
Pressure (altimeter): 29.82 in. Hg (1009 hPa)
ob: KBWD 261935Z AUTO 28014G17KT 10SM OVC024 08/04 A2982 RMK AO1
cycle: 19

Station Type Date Time Source
KBWD TAF UTC NOAA

Error!

Example: see airport list